Time;durP1;ratioP1;P1;durP2;ratioP2;P2;SDS_P1;SDS_P2;PMS_P1;PMS_P2;Temp;Humidity;BMP_temperature;BMP_pressure;BME280_temperature;BME280_humidity;BME280_pressure;Samples;Min_cycle;Max_cycle;Signal;HPM_P1;HPM_P2
2021/10/07 00:00:10;;;;;;;;;10.00;10.00;;;;;16.15;56.79;102027.88;2091632;28;47114;-53
2021/10/07 00:01:11;;;;;;;;;15.00;14.80;;;;;16.15;57.22;102035.03;2091192;28;48126;-51
2021/10/07 00:02:11;;;;;;;;;14.75;11.50;;;;;16.14;57.28;102030.59;2091724;28;46238;-50
2021/10/07 00:03:12;;;;;;;;;8.50;8.50;;;;;16.14;57.23;102027.91;2091782;28;46852;-51
2021/10/07 00:04:12;;;;;;;;;10.75;9.00;;;;;16.14;56.95;102028.81;2092343;28;47348;-49
2021/10/07 00:05:13;;;;;;;;;17.50;15.25;;;;;16.13;57.49;102029.72;2091833;28;47277;-53
2021/10/07 00:06:14;;;;;;;;;12.00;12.00;;;;;16.12;57.18;102027.94;2092477;28;47217;-50
2021/10/07 00:07:15;;;;;;;;;11.00;9.50;;;;;16.13;57.07;102036.84;2091490;28;47771;-50
2021/10/07 00:08:15;;;;;;;;;11.20;11.20;;;;;16.11;57.41;102036.88;2091683;28;47521;-50
2021/10/07 00:09:16;;;;;;;;;9.00;9.00;;;;;16.12;57.34;102035.09;2091980;28;47153;-51
2021/10/07 00:10:16;;;;;;;;;7.00;7.00;;;;;16.11;56.89;102034.19;2092181;28;47369;-47
2021/10/07 00:11:17;;;;;;;;;7.50;6.50;;;;;16.09;57.24;102036.03;2092007;28;45438;-47
2021/10/07 00:12:18;;;;;;;;;7.00;7.00;;;;;16.11;57.28;102044.03;2092431;28;46072;-49
2021/10/07 00:13:18;;;;;;;;;9.00;8.50;;;;;16.11;57.51;102044.91;2092059;28;47288;-52
2021/10/07 00:14:19;;;;;;;;;10.33;7.33;;;;;16.10;57.52;102039.59;2092139;28;47546;-47
2021/10/07 00:15:19;;;;;;;;;6.67;6.67;;;;;16.09;56.99;102049.44;2092104;28;48677;-52
2021/10/07 00:16:20;;;;;;;;;9.67;9.00;;;;;16.09;57.54;102048.56;2092142;28;46962;-51
2021/10/07 00:17:20;;;;;;;;;5.67;5.00;;;;;16.09;56.99;102048.56;2091277;28;47330;-49
2021/10/07 00:18:21;;;;;;;;;4.33;4.33;;;;;16.07;56.99;102043.25;2093084;28;48091;-50
2021/10/07 00:19:21;;;;;;;;;6.75;6.75;;;;;16.08;57.22;102045.00;2094259;28;48446;-51
2021/10/07 00:20:22;;;;;;;;;5.00;5.00;;;;;16.07;57.13;102040.56;2091970;28;46254;-48
2021/10/07 00:21:23;;;;;;;;;6.00;4.67;;;;;16.07;57.64;102045.91;2091007;28;48475;-49
2021/10/07 00:22:23;;;;;;;;;6.00;5.67;;;;;16.08;57.38;102045.00;2092083;28;47296;-50
2021/10/07 00:23:26;;;;;;;;;6.67;6.67;;;;;16.06;57.09;102044.16;2091817;28;46954;-49
2021/10/07 00:24:27;;;;;;;;;4.25;4.25;;;;;16.07;57.62;102045.03;2091482;28;47596;-47
2021/10/07 00:25:27;;;;;;;;;4.33;4.00;;;;;16.07;57.50;102045.03;2091040;28;45322;-52
2021/10/07 00:26:28;;;;;;;;;4.33;3.67;;;;;16.07;57.40;102048.59;2092331;28;48159;-49
2021/10/07 00:27:29;;;;;;;;;4.50;4.50;;;;;16.07;57.17;102047.72;2091764;28;47193;-48
2021/10/07 00:28:32;;;;;;;;;5.00;5.00;;;;;16.06;57.64;102049.50;2092395;28;47367;-50
2021/10/07 00:29:41;;;;;;;;;6.00;3.75;;;;;16.05;57.36;102047.75;2091859;28;45563;-49
2021/10/07 00:30:43;;;;;;;;;4.75;4.00;;;;;16.04;57.66;102046.00;2092146;28;47929;-49
2021/10/07 00:31:46;;;;;;;;;5.00;5.00;;;;;16.04;57.26;102047.78;2091467;28;46312;-49
2021/10/07 00:39:05;;;;;;;;;4.00;4.00;;;;;16.02;57.84;102053.19;2091309;28;47901;-45
2021/10/07 00:40:07;;;;;;;;;5.00;4.50;;;;;16.01;57.93;102051.44;2091725;28;47751;-47
2021/10/07 00:41:08;;;;;;;;;4.25;4.25;;;;;16.00;57.65;102055.00;2092085;28;46939;-48
2021/10/07 00:42:11;;;;;;;;;4.00;4.00;;;;;16.00;57.79;102057.66;2091994;28;45442;-46
2021/10/07 00:43:11;;;;;;;;;2.50;2.50;;;;;16.01;57.70;102053.22;2091913;28;48636;-47
2021/10/07 00:44:12;;;;;;;;;4.67;3.67;;;;;15.98;58.16;102054.16;2087470;28;47451;-52
2021/10/07 00:45:13;;;;;;;;;3.67;3.00;;;;;15.99;57.76;102052.34;2084153;28;46026;-46
2021/10/07 00:46:14;;;;;;;;;2.75;2.75;;;;;16.00;58.03;102059.47;2092044;28;48240;-46
2021/10/07 00:47:16;;;;;;;;;2.00;2.00;;;;;15.99;57.61;102053.22;2092006;28;45237;-49
2021/10/07 00:48:16;;;;;;;;;4.50;4.50;;;;;15.99;58.00;102049.69;2092225;28;47455;-46
2021/10/07 00:49:19;;;;;;;;;5.67;4.33;;;;;15.98;58.07;102054.16;2091198;28;48307;-48
2021/10/07 00:50:19;;;;;;;;;3.50;3.25;;;;;15.99;57.89;102057.72;2091547;28;47072;-47
2021/10/07 00:51:20;;;;;;;;;2.67;2.67;;;;;15.98;57.67;102053.28;2091881;28;48586;-46
2021/10/07 00:52:20;;;;;;;;;3.00;3.00;;;;;15.98;57.85;102055.94;2092015;28;47298;-46
2021/10/07 00:53:21;;;;;;;;;4.33;3.67;;;;;15.96;57.71;102056.00;2091168;28;45126;-52
2021/10/07 00:54:25;;;;;;;;;3.33;3.33;;;;;15.98;57.71;102053.28;2091623;28;47299;-47
2021/10/07 00:55:26;;;;;;;;;3.75;3.75;;;;;15.97;57.58;102054.19;2098814;27;46983;-49
2021/10/07 00:56:26;;;;;;;;;3.00;3.00;;;;;15.96;57.85;102057.78;2092122;28;47286;-48
2021/10/07 00:57:27;;;;;;;;;1.67;1.67;;;;;15.95;58.16;102054.22;2092036;28;48146;-51
2021/10/07 00:58:29;;;;;;;;;2.67;2.67;;;;;15.96;58.10;102061.34;2091500;28;46929;-50
2021/10/07 00:59:33;;;;;;;;;2.25;2.25;;;;;15.95;58.17;102056.03;2091271;28;47350;-50
2021/10/07 01:00:34;;;;;;;;;2.75;1.75;;;;;15.95;58.10;102056.91;2084087;28;47292;-51
2021/10/07 01:01:34;;;;;;;;;2.00;2.00;;;;;15.95;57.79;102061.38;2086982;28;47324;-48
2021/10/07 01:02:36;;;;;;;;;2.33;2.33;;;;;15.94;57.94;102054.28;2091615;28;47163;-51
2021/10/07 01:03:37;;;;;;;;;2.75;2.75;;;;;15.92;58.12;102056.97;2091811;28;47939;-51
2021/10/07 01:04:37;;;;;;;;;2.33;2.33;;;;;15.92;57.96;102054.31;2092225;28;48272;-49
2021/10/07 01:05:38;;;;;;;;;2.00;1.67;;;;;15.90;58.22;102050.78;2091445;28;47425;-50
2021/10/07 01:06:42;;;;;;;;;2.75;2.50;;;;;15.90;58.16;102050.78;2091335;28;48080;-53
2021/10/07 01:07:43;;;;;;;;;2.50;2.50;;;;;15.90;57.95;102050.78;2091230;28;45285;-51
2021/10/07 01:08:43;;;;;;;;;2.67;2.67;;;;;15.90;58.07;102050.78;2091402;28;48094;-53
2021/10/07 01:09:45;;;;;;;;;3.33;3.33;;;;;15.89;58.24;102054.38;2091507;28;48234;-53
2021/10/07 01:10:46;;;;;;;;;4.50;3.00;;;;;15.88;57.90;102048.16;2092104;28;48113;-52
2021/10/07 01:11:46;;;;;;;;;2.67;1.67;;;;;15.89;58.00;102055.25;2091723;28;45360;-51
2021/10/07 01:12:47;;;;;;;;;5.33;3.67;;;;;15.88;57.98;102048.16;2091211;28;48185;-51
2021/10/07 01:13:47;;;;;;;;;1.67;1.67;;;;;15.87;58.35;102049.03;2091182;28;47154;-51
2021/10/07 01:14:54;;;;;;;;;3.67;3.67;;;;;15.87;58.47;102050.81;2091902;28;45306;-50
2021/10/07 01:16:02;;;;;;;;;2.00;2.00;;;;;15.87;58.43;102056.19;2091601;28;47257;-51
2021/10/07 01:17:03;;;;;;;;;1.25;1.25;;;;;15.85;57.87;102056.22;2091576;28;48157;-51
2021/10/07 01:18:04;;;;;;;;;3.75;3.25;;;;;15.84;58.14;102054.47;2082890;28;45486;-53
2021/10/07 01:19:04;;;;;;;;;8.67;3.67;;;;;15.84;58.09;102056.25;2097573;28;47215;-52
2021/10/07 01:20:06;;;;;;;;;3.33;2.33;;;;;15.84;58.54;102058.94;2091773;28;46278;-52
2021/10/07 01:21:10;;;;;;;;;2.25;2.25;;;;;15.83;58.18;102057.19;2091626;28;47200;-51
2021/10/07 01:22:10;;;;;;;;;3.00;3.00;;;;;15.82;58.56;102056.31;2091787;28;47486;-53
2021/10/07 01:23:11;;;;;;;;;2.33;1.67;;;;;15.82;58.77;102058.97;2090900;28;45753;-51
2021/10/07 01:24:11;;;;;;;;;4.33;3.67;;;;;15.82;58.16;102058.09;2091076;28;48217;-51
2021/10/07 01:25:12;;;;;;;;;2.67;2.67;;;;;15.81;58.62;102056.34;2091590;28;47254;-52
2021/10/07 01:26:15;;;;;;;;;3.33;2.00;;;;;15.80;58.75;102054.56;2091744;28;46896;-51
2021/10/07 01:27:17;;;;;;;;;2.00;2.00;;;;;15.81;58.06;102053.66;2091552;28;47005;-47
2021/10/07 01:28:17;;;;;;;;;4.75;2.75;;;;;15.79;58.81;102050.13;2091074;28;46934;-50
2021/10/07 01:29:18;;;;;;;;;2.67;2.67;;;;;15.79;58.55;102048.34;2090970;28;47993;-50
2021/10/07 01:30:18;;;;;;;;;5.00;5.00;;;;;15.79;58.26;102055.50;2091198;28;47635;-51
2021/10/07 01:31:19;;;;;;;;;4.67;2.67;;;;;15.78;58.33;102049.25;2091069;28;47377;-49
2021/10/07 01:32:20;;;;;;;;;2.00;1.67;;;;;15.78;58.57;102056.41;2091660;28;47059;-51
2021/10/07 01:33:21;;;;;;;;;4.25;3.00;;;;;15.78;58.68;102059.09;2091868;28;46790;-50
2021/10/07 01:34:27;;;;;;;;;2.00;2.00;;;;;15.78;58.40;102053.75;2091290;28;48281;-50
2021/10/07 01:35:28;;;;;;;;;4.50;3.75;;;;;15.77;58.49;102051.97;2091069;28;47571;-49
2021/10/07 01:36:28;;;;;;;;;3.00;2.67;;;;;15.77;58.65;102055.53;2091861;28;47015;-51
2021/10/07 01:37:29;;;;;;;;;1.67;1.67;;;;;15.76;58.61;102051.09;2091494;28;47247;-52
2021/10/07 01:38:30;;;;;;;;;2.67;1.67;;;;;15.76;58.42;102052.91;2091068;28;46651;-49
2021/10/07 01:39:30;;;;;;;;;3.00;3.00;;;;;15.75;58.44;102056.44;2090722;28;46502;-49
2021/10/07 01:40:31;;;;;;;;;4.67;2.67;;;;;15.75;58.86;102052.00;2091472;28;47388;-50
2021/10/07 01:41:31;;;;;;;;;3.75;2.75;;;;;15.74;58.67;102055.56;2090924;28;47986;-52
2021/10/07 01:42:32;;;;;;;;;2.67;2.67;;;;;15.74;58.68;102049.34;2091304;28;48177;-49
2021/10/07 01:43:33;;;;;;;;;4.00;4.00;;;;;15.73;58.93;102048.47;2083949;28;47181;-50
2021/10/07 01:44:33;;;;;;;;;3.33;2.67;;;;;15.73;58.78;102048.47;2091245;28;46692;-51
2021/10/07 01:45:34;;;;;;;;;2.67;2.67;;;;;15.72;58.49;102049.38;2091345;28;47189;-51
2021/10/07 01:46:34;;;;;;;;;3.33;3.00;;;;;15.72;59.06;102049.38;2092090;28;47237;-53
2021/10/07 01:47:35;;;;;;;;;3.00;2.67;;;;;15.72;58.66;102048.50;2091622;28;47321;-53
2021/10/07 01:48:35;;;;;;;;;3.67;3.00;;;;;15.71;58.71;102044.94;2089431;28;47334;-48
2021/10/07 01:49:36;;;;;;;;;2.33;2.33;;;;;15.71;58.70;102049.41;2085764;28;48316;-52
2021/10/07 01:50:36;;;;;;;;;3.33;3.33;;;;;15.71;59.02;102052.09;2090747;28;48109;-51
2021/10/07 01:51:37;;;;;;;;;5.67;4.67;;;;;15.70;58.80;102053.00;2091581;28;47361;-50
2021/10/07 01:52:39;;;;;;;;;6.00;4.67;;;;;15.70;58.90;102050.34;2088978;28;46997;-50
2021/10/07 01:53:39;;;;;;;;;3.00;3.00;;;;;15.70;58.63;102053.00;2089530;28;47124;-50
2021/10/07 01:54:40;;;;;;;;;4.67;3.67;;;;;15.69;59.07;102054.81;2090805;28;48385;-53
2021/10/07 01:55:40;;;;;;;;;2.67;2.67;;;;;15.69;58.76;102053.94;2090696;28;47971;-48
2021/10/07 01:56:41;;;;;;;;;4.00;4.00;;;;;15.68;58.98;102050.38;2091857;28;47440;-51
2021/10/07 01:57:41;;;;;;;;;4.00;2.33;;;;;15.67;58.87;102051.28;2082615;28;45557;-53
2021/10/07 01:58:42;;;;;;;;;4.00;3.00;;;;;15.66;59.21;102057.56;2078177;28;47647;-52
2021/10/07 01:59:42;;;;;;;;;5.67;5.00;;;;;15.67;58.88;102055.75;2093312;28;46132;-52
2021/10/07 02:00:43;;;;;;;;;3.67;3.67;;;;;15.66;58.93;102054.00;2090987;28;48079;-51
2021/10/07 02:01:43;;;;;;;;;5.00;3.67;;;;;15.67;59.10;102055.75;2090767;28;47092;-52
2021/10/07 02:02:44;;;;;;;;;3.00;3.00;;;;;15.65;58.78;102058.47;2091205;28;47179;-52
2021/10/07 02:03:44;;;;;;;;;5.00;2.67;;;;;15.66;59.01;102048.66;2082633;28;46074;-50
2021/10/07 02:04:45;;;;;;;;;3.00;3.00;;;;;15.65;59.09;102052.25;2091041;28;47404;-52
2021/10/07 02:05:45;;;;;;;;;3.33;3.33;;;;;15.64;59.44;102046.00;2090713;28;47094;-51
2021/10/07 02:06:46;;;;;;;;;4.00;4.00;;;;;15.63;58.94;102049.59;2091121;28;47400;-51
2021/10/07 02:07:46;;;;;;;;;4.00;4.00;;;;;15.61;59.12;102046.03;2091208;28;45448;-53
2021/10/07 02:08:47;;;;;;;;;4.00;4.00;;;;;15.62;59.05;102050.47;2091833;28;47313;-51
2021/10/07 02:09:47;;;;;;;;;4.00;4.00;;;;;15.62;59.19;102049.59;2091470;28;46939;-53
2021/10/07 02:10:47;;;;;;;;;3.00;2.00;;;;;15.61;58.98;102051.41;2091007;28;46798;-49
2021/10/07 02:11:48;;;;;;;;;3.33;3.00;;;;;15.60;59.18;102042.50;2091608;28;47696;-53
2021/10/07 02:12:49;;;;;;;;;4.00;3.33;;;;;15.59;59.52;102046.09;2082577;28;47086;-50
2021/10/07 02:13:50;;;;;;;;;5.00;5.00;;;;;15.58;59.66;102046.09;2082325;28;47186;-50
2021/10/07 02:14:51;;;;;;;;;4.25;4.25;;;;;15.57;59.75;102037.19;2090692;28;47369;-53
2021/10/07 02:15:51;;;;;;;;;6.00;4.67;;;;;15.56;59.44;102039.91;2091404;28;46240;-52
2021/10/07 02:16:52;;;;;;;;;4.67;4.67;;;;;15.56;59.55;102042.56;2091379;28;47399;-50
2021/10/07 02:17:53;;;;;;;;;2.67;2.67;;;;;15.55;59.58;102044.38;2090723;28;48246;-52
2021/10/07 02:18:53;;;;;;;;;8.00;4.00;;;;;15.55;59.63;102040.81;2095762;28;48230;-51
2021/10/07 02:19:54;;;;;;;;;3.00;3.00;;;;;15.54;59.67;102039.94;2090892;28;47249;-53
2021/10/07 02:20:54;;;;;;;;;3.00;3.00;;;;;15.55;59.38;102043.47;2090720;28;47437;-52
2021/10/07 02:21:55;;;;;;;;;4.00;4.00;;;;;15.54;59.61;102041.72;2074105;28;48110;-53
2021/10/07 02:22:55;;;;;;;;;4.00;4.00;;;;;15.52;59.55;102044.44;2082305;28;45309;-52
2021/10/07 02:23:56;;;;;;;;;3.67;3.00;;;;;15.52;59.45;102040.88;2091242;28;47196;-52
2021/10/07 02:24:56;;;;;;;;;4.00;4.00;;;;;15.52;59.58;102038.22;2090806;28;47148;-53
2021/10/07 02:25:58;;;;;;;;;3.00;3.00;;;;;15.51;59.98;102033.78;2090426;28;48092;-52
2021/10/07 02:26:58;;;;;;;;;4.25;3.00;;;;;15.50;59.47;102035.56;2090706;28;47517;-50
2021/10/07 02:27:59;;;;;;;;;4.67;4.00;;;;;15.50;59.66;102035.56;2082306;28;47587;-52
2021/10/07 02:28:59;;;;;;;;;3.00;3.00;;;;;15.49;59.44;102036.44;2090839;28;45819;-50
2021/10/07 02:30:00;;;;;;;;;4.33;3.33;;;;;15.49;59.36;102033.78;2082380;28;47289;-50
2021/10/07 02:31:00;;;;;;;;;3.00;2.67;;;;;15.49;59.50;102031.09;2090878;28;48169;-48
2021/10/07 02:32:01;;;;;;;;;7.67;4.00;;;;;15.49;59.67;102027.53;2091513;28;48148;-52
2021/10/07 02:33:02;;;;;;;;;3.33;3.33;;;;;15.46;59.97;102028.50;2090859;28;47936;-53
2021/10/07 02:34:02;;;;;;;;;3.75;3.75;;;;;15.46;59.60;102033.84;2082389;28;45370;-49
2021/10/07 02:35:04;;;;;;;;;2.33;2.33;;;;;15.45;60.03;102028.53;2090699;28;48192;-52
2021/10/07 02:36:05;;;;;;;;;5.25;2.75;;;;;15.45;59.97;102031.22;2091611;28;47391;-52
2021/10/07 02:37:05;;;;;;;;;2.00;2.00;;;;;15.44;59.67;102026.78;2090406;28;46329;-53
2021/10/07 02:38:06;;;;;;;;;4.00;4.00;;;;;15.43;59.49;102033.03;2090635;28;46982;-51
2021/10/07 02:39:07;;;;;;;;;2.75;2.75;;;;;15.43;60.05;102030.38;2090537;28;47108;-53
2021/10/07 02:40:09;;;;;;;;;5.00;4.00;;;;;15.42;59.74;102029.50;2090701;28;46598;-52
2021/10/07 02:41:09;;;;;;;;;4.75;3.75;;;;;15.41;59.69;102033.06;2091320;28;48591;-52
2021/10/07 02:42:10;;;;;;;;;5.67;3.67;;;;;15.41;59.69;102032.19;2091316;28;47363;-50
2021/10/07 02:43:10;;;;;;;;;5.00;3.33;;;;;15.40;59.78;102034.00;2091331;28;47202;-49
2021/10/07 02:44:11;;;;;;;;;3.00;3.00;;;;;15.40;59.92;102027.75;2091212;28;48300;-49
2021/10/07 02:45:14;;;;;;;;;5.00;5.00;;;;;15.39;60.47;102034.03;2088925;28;47329;-52
2021/10/07 02:46:14;;;;;;;;;2.75;2.75;;;;;15.38;60.33;102038.50;2090515;28;46361;-52
2021/10/07 02:47:15;;;;;;;;;5.00;4.00;;;;;15.37;60.21;102033.16;2091322;28;48304;-52
2021/10/07 02:48:16;;;;;;;;;4.33;3.67;;;;;15.37;60.29;102027.81;2090603;28;47426;-52
2021/10/07 02:49:16;;;;;;;;;6.67;4.00;;;;;15.36;59.96;102028.72;2090742;28;47703;-52
2021/10/07 02:50:19;;;;;;;;;5.33;4.00;;;;;15.37;59.86;102027.81;2099029;28;47967;-53
2021/10/07 02:51:19;;;;;;;;;3.75;3.75;;;;;15.36;60.07;102032.28;2082757;28;45173;-49
2021/10/07 02:52:19;;;;;;;;;3.67;3.67;;;;;15.36;60.30;102028.72;2090560;28;46781;-50
2021/10/07 02:53:20;;;;;;;;;4.00;3.00;;;;;15.36;60.10;102040.28;2091103;28;47474;-51
2021/10/07 02:54:21;;;;;;;;;3.67;3.67;;;;;15.37;60.38;102035.81;2091301;28;46565;-51
2021/10/07 02:55:22;;;;;;;;;4.33;2.67;;;;;15.35;60.20;102038.53;2090989;28;47254;-51
2021/10/07 02:56:22;;;;;;;;;4.00;3.50;;;;;15.35;59.95;102038.53;2084340;28;47279;-50
2021/10/07 02:57:23;;;;;;;;;4.00;4.00;;;;;15.34;60.58;102041.25;2091302;28;47376;-49
2021/10/07 02:58:24;;;;;;;;;6.00;4.67;;;;;15.34;60.12;102041.25;2091150;28;47190;-54
2021/10/07 02:59:24;;;;;;;;;7.00;6.75;;;;;15.33;60.30;102040.38;2091308;28;47411;-50
2021/10/07 03:00:25;;;;;;;;;4.33;4.33;;;;;15.32;60.36;102039.47;2090671;28;47292;-52
2021/10/07 03:01:26;;;;;;;;;4.25;3.00;;;;;15.32;60.64;102031.47;2090377;28;47605;-52
2021/10/07 03:02:26;;;;;;;;;4.00;4.00;;;;;15.32;60.53;102041.28;2091376;28;47950;-49
2021/10/07 03:03:27;;;;;;;;;5.33;4.00;;;;;15.32;60.49;102036.81;2090957;28;47481;-53
2021/10/07 03:04:27;;;;;;;;;3.00;3.00;;;;;15.32;60.74;102033.25;2090713;28;46010;-52
2021/10/07 03:05:28;;;;;;;;;5.00;5.00;;;;;15.32;60.53;102036.81;2090573;28;47211;-50
2021/10/07 03:06:28;;;;;;;;;4.00;4.00;;;;;15.31;60.61;102037.72;2091021;28;48749;-53
2021/10/07 03:07:29;;;;;;;;;6.00;5.00;;;;;15.31;60.25;102037.72;2091171;28;46471;-50
2021/10/07 03:08:29;;;;;;;;;3.67;3.67;;;;;15.32;60.31;102038.59;2091080;28;47652;-51
2021/10/07 03:09:30;;;;;;;;;4.67;4.33;;;;;15.31;60.21;102036.84;2090998;28;47465;-50
2021/10/07 03:10:31;;;;;;;;;5.00;4.67;;;;;15.30;60.53;102038.63;2091096;28;46136;-50
2021/10/07 03:11:31;;;;;;;;;4.33;4.33;;;;;15.31;60.59;102036.84;2090945;28;45422;-53
2021/10/07 03:12:32;;;;;;;;;4.67;4.67;;;;;15.29;60.35;102034.22;2091136;28;47403;-50
2021/10/07 03:13:32;;;;;;;;;5.00;5.00;;;;;15.30;60.66;102043.09;2091050;28;48304;-51
2021/10/07 03:14:33;;;;;;;;;4.00;4.00;;;;;15.29;60.33;102038.69;2091284;28;47212;-47
2021/10/07 03:15:34;;;;;;;;;5.00;5.00;;;;;15.29;60.52;102044.91;2090869;28;47583;-51
2021/10/07 03:16:34;;;;;;;;;4.33;4.33;;;;;15.28;60.27;102043.16;2091352;28;45243;-51
2021/10/07 03:17:36;;;;;;;;;3.67;3.67;;;;;15.28;60.39;102044.94;2090755;28;47093;-51
2021/10/07 03:18:36;;;;;;;;;3.25;3.25;;;;;15.29;60.29;102046.69;2094933;28;47269;-52
2021/10/07 03:19:37;;;;;;;;;6.33;4.33;;;;;15.29;60.28;102054.72;2099286;27;47163;-49
2021/10/07 03:20:38;;;;;;;;;3.50;3.50;;;;;15.27;60.34;102044.06;2091705;27;47292;-50
2021/10/07 03:21:38;;;;;;;;;4.00;3.67;;;;;15.28;60.55;102052.97;2090703;28;45863;-48
2021/10/07 03:22:40;;;;;;;;;4.67;4.67;;;;;15.27;60.83;102044.06;2089561;28;47271;-50
2021/10/07 03:23:41;;;;;;;;;6.00;5.25;;;;;15.27;60.56;102045.84;2081011;28;48294;-52
2021/10/07 03:24:43;;;;;;;;;6.00;6.00;;;;;15.26;60.42;102044.09;2089646;28;48258;-47
2021/10/07 03:25:43;;;;;;;;;4.25;4.25;;;;;15.27;60.50;102048.53;2098523;27;48302;-49
2021/10/07 03:26:44;;;;;;;;;4.33;3.67;;;;;15.26;60.98;102053.00;2100305;28;47299;-52
2021/10/07 03:27:44;;;;;;;;;5.00;5.00;;;;;15.25;60.73;102039.66;2092387;28;47056;-51
2021/10/07 03:28:45;;;;;;;;;4.00;4.00;;;;;15.25;60.89;102048.56;2091792;28;46120;-48
2021/10/07 03:29:45;;;;;;;;;3.00;3.00;;;;;15.25;60.55;102047.69;2091766;28;48198;-49
2021/10/07 03:30:46;;;;;;;;;4.00;4.00;;;;;15.25;60.48;102055.69;2092626;28;47480;-52
2021/10/07 03:31:46;;;;;;;;;3.33;2.33;;;;;15.24;60.76;102048.56;2091679;28;47280;-51
2021/10/07 03:32:47;;;;;;;;;5.67;5.00;;;;;15.23;60.65;102050.34;2092081;28;46472;-52
2021/10/07 03:33:47;;;;;;;;;6.00;3.00;;;;;15.23;60.66;102047.69;2091598;28;48042;-52
2021/10/07 03:34:48;;;;;;;;;2.00;0.67;;;;;15.22;61.09;102059.28;2091908;28;45388;-49
2021/10/07 03:35:48;;;;;;;;;4.33;4.33;;;;;15.23;60.77;102054.81;2091602;28;47210;-50
2021/10/07 03:36:49;;;;;;;;;2.67;1.67;;;;;15.22;60.77;102059.28;2091926;28;48083;-51
2021/10/07 03:37:50;;;;;;;;;3.25;3.25;;;;;15.22;60.99;102055.75;2091808;28;47369;-50
2021/10/07 03:38:51;;;;;;;;;4.00;4.00;;;;;15.23;60.70;102057.50;2092570;28;47342;-48
2021/10/07 03:39:51;;;;;;;;;4.67;3.33;;;;;15.22;60.91;102056.63;2092029;28;47285;-53
2021/10/07 03:40:52;;;;;;;;;5.33;5.00;;;;;15.21;60.94;102060.22;2091781;28;46167;-52
2021/10/07 03:41:52;;;;;;;;;4.00;4.00;;;;;15.22;60.87;102050.38;2081229;28;48154;-50
2021/10/07 03:42:53;;;;;;;;;3.33;2.00;;;;;15.21;60.61;102054.84;2091489;28;47073;-49
2021/10/07 03:43:53;;;;;;;;;4.00;4.00;;;;;15.20;60.81;102055.78;2092392;28;48238;-51
2021/10/07 03:44:54;;;;;;;;;5.67;3.33;;;;;15.20;60.65;102062.91;2092379;28;47130;-49
2021/10/07 03:45:54;;;;;;;;;5.00;4.00;;;;;15.19;61.08;102056.69;2092258;28;47109;-48
2021/10/07 03:46:55;;;;;;;;;5.00;5.00;;;;;15.19;60.99;102054.00;2092391;28;47299;-50
2021/10/07 03:47:55;;;;;;;;;4.67;4.00;;;;;15.19;60.87;102056.69;2092284;28;46391;-49
2021/10/07 03:48:56;;;;;;;;;2.67;2.67;;;;;15.19;60.74;102053.13;2092279;28;47097;-51
2021/10/07 03:49:57;;;;;;;;;3.67;2.33;;;;;15.19;60.98;102058.47;2092329;28;45717;-52
2021/10/07 03:50:57;;;;;;;;;3.00;3.00;;;;;15.19;60.80;102061.16;2091661;28;46998;-52
2021/10/07 03:51:58;;;;;;;;;7.00;5.00;;;;;15.18;61.08;102065.63;2091471;28;48247;-48
2021/10/07 03:52:58;;;;;;;;;6.00;5.67;;;;;15.18;60.99;102060.28;2092166;28;47235;-50
2021/10/07 03:53:59;;;;;;;;;4.00;4.00;;;;;15.18;61.33;102059.41;2091464;28;47242;-50
2021/10/07 03:54:59;;;;;;;;;3.67;2.33;;;;;15.17;60.81;102058.50;2092057;28;45368;-49
2021/10/07 03:56:00;;;;;;;;;4.33;4.33;;;;;15.17;60.83;102063.88;2092085;28;45471;-52
2021/10/07 03:57:00;;;;;;;;;6.00;5.00;;;;;15.16;61.39;102064.78;2091518;28;47697;-49
2021/10/07 03:58:00;;;;;;;;;2.67;2.67;;;;;15.16;60.86;102064.78;2083384;28;47415;-48
2021/10/07 03:59:01;;;;;;;;;4.33;4.33;;;;;15.16;60.96;102064.78;2091784;28;47534;-49
2021/10/07 04:00:03;;;;;;;;;3.00;3.00;;;;;15.16;61.24;102064.78;2092159;28;48124;-48
2021/10/07 04:01:04;;;;;;;;;5.00;5.00;;;;;15.16;61.32;102066.56;2092363;28;48036;-50
2021/10/07 04:02:04;;;;;;;;;4.00;2.67;;;;;15.15;60.71;102060.34;2092457;28;47179;-51
2021/10/07 04:03:05;;;;;;;;;3.67;3.67;;;;;15.16;60.75;102062.09;2092165;28;48265;-50
2021/10/07 04:04:06;;;;;;;;;3.33;3.33;;;;;15.15;61.07;102055.00;2092409;28;48381;-48
2021/10/07 04:05:06;;;;;;;;;2.67;2.67;;;;;15.16;60.93;102070.13;2091926;28;48242;-48
2021/10/07 04:06:07;;;;;;;;;3.00;3.00;;;;;15.16;61.47;102062.09;2093052;28;45768;-50
2021/10/07 04:07:08;;;;;;;;;4.00;2.33;;;;;15.15;61.36;102073.72;2082976;28;48324;-51
2021/10/07 04:08:08;;;;;;;;;3.67;3.67;;;;;15.16;60.85;102071.91;2091698;28;47099;-49
2021/10/07 04:09:09;;;;;;;;;4.33;4.33;;;;;15.16;61.33;102072.81;2091882;28;48112;-50
2021/10/07 04:10:10;;;;;;;;;4.00;4.00;;;;;15.16;60.82;102071.91;2092207;28;48269;-47
2021/10/07 04:11:10;;;;;;;;;5.00;4.67;;;;;15.16;61.57;102077.28;2091858;28;47249;-49
2021/10/07 04:12:10;;;;;;;;;5.67;5.00;;;;;15.15;60.86;102076.38;2092196;28;47001;-51
2021/10/07 04:13:11;;;;;;;;;5.00;5.00;;;;;15.14;61.08;102077.31;2091863;28;48253;-49
2021/10/07 04:14:11;;;;;;;;;3.33;3.33;;;;;15.14;61.19;102076.41;2091496;28;47505;-48
2021/10/07 04:15:12;;;;;;;;;5.33;4.33;;;;;15.13;61.51;102074.66;2091661;28;46386;-51
2021/10/07 04:16:13;;;;;;;;;5.00;4.00;;;;;15.14;61.13;102079.09;2092151;28;48242;-47
2021/10/07 04:17:14;;;;;;;;;4.50;4.50;;;;;15.13;61.58;102085.34;2091993;28;46336;-49
2021/10/07 04:18:15;;;;;;;;;7.67;6.00;;;;;15.11;60.94;102080.00;2092815;28;47499;-46
2021/10/07 04:19:17;;;;;;;;;6.75;4.00;;;;;15.10;60.94;102078.25;2096855;28;48315;-50
2021/10/07 04:20:18;;;;;;;;;5.00;2.75;;;;;15.11;61.25;102081.81;2087720;28;48455;-50
2021/10/07 04:21:18;;;;;;;;;4.67;4.67;;;;;15.09;61.14;102081.84;2092084;28;47202;-51
2021/10/07 04:22:19;;;;;;;;;6.00;6.00;;;;;15.10;61.21;102090.72;2092221;28;47160;-49
2021/10/07 04:23:19;;;;;;;;;4.67;3.33;;;;;15.09;61.09;102083.63;2092180;28;47267;-49
2021/10/07 04:24:20;;;;;;;;;6.33;3.67;;;;;15.08;61.00;102080.06;2092055;28;48206;-50
2021/10/07 04:25:21;;;;;;;;;5.33;4.33;;;;;15.06;61.45;102081.91;2091806;28;48392;-50
2021/10/07 04:26:21;;;;;;;;;3.00;3.00;;;;;15.06;61.18;102081.91;2091238;28;47399;-49
2021/10/07 04:27:23;;;;;;;;;5.00;4.00;;;;;15.05;61.43;102085.47;2091272;28;46979;-51
2021/10/07 04:28:23;;;;;;;;;5.50;3.75;;;;;15.03;61.20;102081.97;2092267;28;47333;-51
2021/10/07 04:29:24;;;;;;;;;4.00;4.00;;;;;15.03;61.37;102081.97;2092155;28;48302;-48
2021/10/07 04:30:25;;;;;;;;;2.00;2.00;;;;;15.03;61.63;102081.97;2092146;28;48222;-47
2021/10/07 04:31:25;;;;;;;;;6.25;5.00;;;;;15.04;61.77;102077.50;2092042;28;47287;-52
2021/10/07 04:32:25;;;;;;;;;2.33;2.33;;;;;15.04;61.21;102080.16;2092035;28;47161;-50
2021/10/07 04:33:26;;;;;;;;;3.67;3.67;;;;;15.02;61.19;102078.41;2091904;28;45093;-51
2021/10/07 04:34:26;;;;;;;;;3.00;3.00;;;;;15.03;61.39;102079.28;2091328;28;46420;-49
2021/10/07 04:35:27;;;;;;;;;4.33;4.33;;;;;15.02;61.46;102078.41;2091178;28;45512;-49
2021/10/07 04:36:28;;;;;;;;;4.67;4.33;;;;;15.03;61.57;102087.31;2090918;28;47260;-49
2021/10/07 04:37:28;;;;;;;;;5.67;5.67;;;;;15.02;61.17;102077.53;2088009;28;47258;-49
2021/10/07 04:38:29;;;;;;;;;4.67;4.67;;;;;15.04;61.59;102082.84;2091908;28;48342;-50
2021/10/07 04:39:30;;;;;;;;;2.75;2.75;;;;;15.01;61.43;102073.97;2091349;28;47094;-51
2021/10/07 04:40:31;;;;;;;;;5.67;5.33;;;;;15.04;61.34;102088.19;2091096;28;48297;-52
2021/10/07 04:41:31;;;;;;;;;4.75;4.75;;;;;15.02;61.23;102078.41;2091234;28;47315;-49
2021/10/07 04:42:32;;;;;;;;;4.00;4.00;;;;;15.03;61.61;102081.97;2092029;28;47682;-48
2021/10/07 04:43:33;;;;;;;;;4.67;4.00;;;;;15.01;61.65;102081.13;2091751;28;47101;-48
2021/10/07 04:44:33;;;;;;;;;5.00;5.00;;;;;15.01;61.43;102078.44;2091935;28;47169;-51
2021/10/07 04:45:34;;;;;;;;;7.67;6.00;;;;;15.01;61.47;102075.78;2091833;28;48528;-49
2021/10/07 04:46:34;;;;;;;;;4.00;3.33;;;;;15.00;61.26;102080.22;2092010;28;48001;-48
2021/10/07 04:47:35;;;;;;;;;5.00;5.00;;;;;15.00;61.35;102076.69;2091771;28;46384;-49
2021/10/07 04:48:35;;;;;;;;;6.67;5.00;;;;;14.98;61.59;102074.00;2092198;28;47007;-49